createdAt,value
2023-02-01T00:00:26.643Z,10.19
2023-02-01T00:02:53.286Z,10.02
2023-02-01T00:05:19.838Z,10.11
2023-02-01T00:07:49.359Z,10.19
2023-02-01T00:10:16.409Z,10.81
2023-02-01T00:12:42.954Z,9.52
2023-02-01T00:15:10.114Z,9.88
2023-02-01T00:17:36.941Z,9.58
2023-02-01T00:20:04.148Z,9.94
2023-02-01T00:22:30.731Z,9.92
2023-02-01T00:24:57.358Z,9.95
2023-02-01T00:27:23.924Z,10.20
2023-02-01T00:29:50.452Z,10.27
2023-02-01T00:32:17.030Z,10.14
2023-02-01T00:34:43.547Z,10.31
2023-02-01T00:37:10.066Z,10.52
2023-02-01T00:39:36.603Z,9.82
2023-02-01T00:42:03.182Z,10.60
2023-02-01T00:44:34.052Z,10.11
2023-02-01T00:47:01.153Z,10.59
2023-02-01T00:49:28.816Z,10.82
2023-02-01T00:51:55.397Z,10.40
2023-02-01T00:54:22.146Z,9.84
2023-02-01T00:56:48.790Z,9.58
2023-02-01T00:59:15.419Z,9.31
2023-02-01T01:01:41.978Z,9.69
2023-02-01T01:04:08.614Z,9.66
2023-02-01T01:06:35.302Z,9.69
2023-02-01T01:09:06.728Z,9.21
2023-02-01T01:11:36.371Z,9.12
2023-02-01T01:14:03.622Z,9.45
2023-02-01T01:16:31.919Z,9.41
2023-02-01T01:18:58.955Z,9.33
2023-02-01T01:21:26.466Z,9.07
2023-02-01T01:23:53.613Z,9.19
2023-02-01T01:26:23.794Z,8.61
2023-02-01T01:28:51.499Z,8.88
2023-02-01T01:31:21.493Z,9.38
2023-02-01T01:33:53.594Z,9.63
2023-02-01T01:36:20.953Z,8.92
2023-02-01T01:38:47.504Z,9.34
2023-02-01T01:41:20.390Z,8.77
2023-02-01T01:43:50.291Z,8.83
2023-02-01T01:46:24.856Z,9.04
2023-02-01T01:48:57.732Z,8.58
2023-02-01T01:51:26.725Z,8.82
2023-02-01T01:54:06.293Z,8.74
2023-02-01T01:56:35.461Z,8.27
2023-02-01T01:59:05.820Z,8.40
2023-02-01T02:01:32.802Z,8.49
2023-02-01T02:04:00.328Z,8.57
2023-02-01T02:06:49.037Z,8.88
2023-02-01T02:09:16.121Z,9.04
2023-02-01T02:11:43.146Z,8.89
2023-02-01T02:14:14.993Z,9.24
2023-02-01T02:17:06.022Z,9.38
2023-02-01T02:20:00.474Z,8.61
2023-02-01T02:22:45.803Z,8.81
2023-02-01T02:25:33.541Z,9.33
2023-02-01T02:28:17.512Z,9.33
2023-02-01T02:30:59.414Z,9.20
2023-02-01T02:33:53.522Z,9.28
2023-02-01T02:36:46.676Z,8.81
2023-02-01T02:39:42.162Z,9.42
2023-02-01T02:42:27.838Z,9.70
2023-02-01T02:45:27.548Z,9.64
2023-02-01T02:48:05.825Z,9.44
2023-02-01T02:50:58.166Z,9.23
2023-02-01T02:53:52.509Z,9.56
2023-02-01T02:56:41.111Z,9.62
2023-02-01T02:59:31.148Z,9.03
2023-02-01T03:02:16.366Z,9.72
2023-02-01T03:04:43.603Z,9.51
2023-02-01T03:07:47.581Z,9.85
2023-02-01T03:10:27.783Z,9.41
2023-02-01T03:12:58.823Z,9.26
2023-02-01T03:16:24.117Z,9.64
2023-02-01T03:19:17.906Z,9.90
2023-02-01T03:21:46.628Z,9.85
2023-02-01T03:24:19.388Z,9.63
2023-02-01T03:26:55.747Z,9.90
2023-02-01T03:29:34.343Z,9.85
2023-02-01T03:32:01.041Z,9.68
2023-02-01T03:34:27.870Z,10.28
2023-02-01T03:37:04.993Z,9.26
2023-02-01T03:39:39.044Z,9.81
2023-02-01T03:42:12.286Z,9.01
2023-02-01T03:44:52.578Z,9.66
2023-02-01T03:47:23.424Z,9.72
2023-02-01T03:50:00.213Z,10.15
2023-02-01T03:52:35.063Z,9.56
2023-02-01T03:55:06.100Z,9.78
2023-02-01T03:57:40.349Z,9.54
2023-02-01T04:00:11.071Z,9.26
2023-02-01T04:02:45.124Z,9.96
2023-02-01T04:05:12.548Z,9.42
2023-02-01T04:07:45.689Z,9.46
2023-02-01T04:10:12.857Z,9.06
2023-02-01T04:12:39.873Z,9.61
2023-02-01T04:15:07.257Z,9.88
2023-02-01T04:17:33.827Z,8.79
2023-02-01T04:20:00.408Z,9.63
2023-02-01T04:22:26.977Z,9.59
2023-02-01T04:24:53.505Z,9.03
2023-02-01T04:27:20.035Z,9.47
2023-02-01T04:29:46.584Z,9.30
2023-02-01T04:32:13.150Z,9.66
2023-02-01T04:34:39.629Z,9.81
2023-02-01T04:37:06.204Z,9.87
2023-02-01T04:39:32.720Z,9.61
2023-02-01T04:41:59.262Z,9.81
2023-02-01T04:44:25.926Z,9.77
2023-02-01T04:46:52.741Z,9.62
2023-02-01T04:49:19.398Z,9.38
2023-02-01T04:51:46.033Z,10.17
2023-02-01T04:54:12.554Z,10.46
2023-02-01T04:56:39.101Z,9.71
2023-02-01T04:59:06.283Z,9.87
2023-02-01T05:01:33.193Z,9.78
2023-02-01T05:03:59.877Z,10.16
2023-02-01T05:06:26.449Z,10.05
2023-02-01T05:08:53.034Z,9.63
2023-02-01T05:11:38.207Z,9.74
2023-02-01T05:14:04.746Z,10.00
2023-02-01T05:16:31.391Z,9.85
2023-02-01T05:18:57.984Z,9.52
2023-02-01T05:21:24.572Z,9.85
2023-02-01T05:24:10.079Z,10.15
2023-02-01T05:26:37.664Z,10.32
2023-02-01T05:29:05.803Z,10.42
2023-02-01T05:31:32.467Z,9.83
2023-02-01T05:33:59.412Z,9.98
2023-02-01T05:36:26.094Z,9.81
2023-02-01T05:38:52.647Z,9.39
2023-02-01T05:41:19.185Z,10.20
2023-02-01T05:43:45.735Z,9.61
2023-02-01T05:46:13.641Z,9.92
2023-02-01T05:48:41.308Z,9.70
2023-02-01T05:51:08.658Z,10.01
2023-02-01T05:53:35.202Z,10.21
2023-02-01T05:56:01.788Z,10.09
2023-02-01T06:00:54.742Z,10.11
2023-02-01T06:03:21.444Z,10.42
2023-02-01T06:05:48.647Z,10.13
2023-02-01T06:08:15.515Z,9.65
2023-02-01T06:10:42.066Z,9.46
2023-02-01T06:13:09.508Z,9.77
2023-02-01T06:15:38.277Z,8.95
2023-02-01T06:18:04.971Z,9.31
2023-02-01T06:20:31.710Z,9.30
2023-02-01T06:22:58.240Z,8.92
2023-02-01T06:25:24.848Z,9.13
2023-02-01T06:27:51.398Z,9.31
2023-02-01T06:30:18.240Z,9.58
2023-02-01T06:32:45.719Z,9.35
2023-02-01T06:35:16.875Z,9.37
2023-02-01T06:37:44.140Z,9.23
2023-02-01T06:40:11.267Z,8.93
2023-02-01T06:42:38.319Z,10.01
2023-02-01T06:45:05.138Z,9.94
2023-02-01T06:47:31.675Z,9.87
2023-02-01T06:49:58.197Z,9.54
2023-02-01T06:52:24.720Z,8.95
2023-02-01T06:54:51.303Z,9.82
2023-02-01T06:57:17.860Z,9.53
2023-02-01T06:59:44.438Z,9.78
2023-02-01T07:02:13.934Z,10.17
2023-02-01T07:04:40.562Z,9.45
2023-02-01T07:07:07.226Z,9.28
2023-02-01T07:09:33.806Z,9.20
2023-02-01T07:12:00.418Z,9.79
2023-02-01T07:14:26.969Z,9.94
2023-02-01T07:16:53.533Z,9.03
2023-02-01T07:19:20.037Z,9.68
2023-02-01T07:21:46.573Z,9.38
2023-02-01T07:24:13.104Z,9.46
2023-02-01T07:26:39.701Z,9.53
2023-02-01T07:29:06.434Z,9.78
2023-02-01T07:31:32.984Z,9.07
2023-02-01T07:33:59.621Z,9.40
2023-02-01T07:36:26.165Z,9.08
2023-02-01T07:38:55.329Z,10.04
2023-02-01T07:41:22.972Z,9.21
2023-02-01T07:43:51.728Z,9.51
2023-02-01T07:46:18.371Z,9.61
2023-02-01T07:48:45.027Z,9.82
2023-02-01T07:51:14.389Z,9.16
2023-02-01T07:53:41.853Z,9.59
2023-02-01T07:56:17.284Z,9.55
2023-02-01T07:58:47.957Z,9.67
2023-02-01T08:01:21.557Z,9.85
2023-02-01T08:04:02.390Z,10.47
2023-02-01T08:06:32.033Z,9.91
2023-02-01T08:08:58.898Z,10.36
2023-02-01T08:11:25.927Z,10.12
2023-02-01T08:13:53.333Z,10.04
2023-02-01T08:16:21.186Z,10.55
2023-02-01T08:18:47.828Z,9.74
2023-02-01T08:21:23.407Z,9.78
2023-02-01T08:23:50.555Z,10.49
2023-02-01T08:26:23.370Z,10.24
2023-02-01T08:29:01.696Z,10.40
2023-02-01T08:31:29.887Z,9.69
2023-02-01T08:33:59.114Z,10.28
2023-02-01T08:36:27.873Z,10.29
2023-02-01T08:38:54.545Z,10.83
2023-02-01T08:41:24.436Z,10.43
2023-02-01T08:43:51.866Z,10.76
2023-02-01T08:46:18.864Z,10.50
2023-02-01T08:48:47.393Z,10.58
2023-02-01T08:51:15.875Z,10.80
2023-02-01T08:53:42.755Z,10.21
2023-02-01T08:56:11.795Z,10.59
2023-02-01T08:58:38.746Z,10.70
2023-02-01T09:01:11.506Z,10.77
2023-02-01T09:03:38.154Z,10.46
2023-02-01T09:06:06.717Z,10.93
2023-02-01T09:08:34.253Z,10.98
2023-02-01T09:11:06.748Z,10.86
2023-02-01T09:13:34.609Z,10.11
2023-02-01T09:16:01.322Z,10.74
2023-02-01T09:18:28.042Z,11.04
2023-02-01T09:20:54.595Z,10.57
2023-02-01T09:23:21.418Z,10.39
2023-02-01T09:25:51.060Z,10.57
2023-02-01T09:28:18.314Z,10.20
2023-02-01T09:30:45.103Z,10.54
2023-02-01T09:33:11.724Z,10.75
2023-02-01T09:35:39.036Z,10.21
2023-02-01T09:38:05.653Z,10.56
2023-02-01T09:40:35.318Z,11.49
2023-02-01T09:43:14.929Z,11.73
2023-02-01T09:45:44.365Z,11.29
2023-02-01T09:48:18.162Z,11.61
2023-02-01T09:50:50.720Z,11.22
2023-02-01T09:53:34.220Z,10.68
2023-02-01T09:56:22.343Z,11.34
2023-02-01T09:58:58.076Z,11.15
2023-02-01T10:01:26.975Z,12.06
2023-02-01T10:04:03.689Z,11.38
2023-02-01T10:06:52.880Z,11.36
2023-02-01T10:09:37.306Z,11.18
2023-02-01T10:12:22.753Z,10.71
2023-02-01T10:15:22.022Z,11.24
2023-02-01T10:18:18.192Z,11.26
2023-02-01T10:21:32.781Z,11.42
2023-02-01T10:24:16.794Z,10.15
2023-02-01T10:26:52.165Z,10.69
2023-02-01T10:29:21.531Z,10.60
2023-02-01T10:31:48.194Z,10.70
2023-02-01T10:34:25.923Z,11.35
2023-02-01T10:37:02.525Z,11.40
2023-02-01T10:39:29.258Z,10.97
2023-02-01T10:41:57.210Z,10.57
2023-02-01T10:44:28.288Z,11.03
2023-02-01T10:46:55.203Z,11.42
2023-02-01T10:49:25.161Z,10.71
2023-02-01T10:52:15.125Z,10.66
2023-02-01T10:54:41.725Z,11.37
2023-02-01T10:57:22.295Z,10.86
2023-02-01T10:59:48.891Z,11.17
2023-02-01T11:02:36.084Z,11.23
2023-02-01T11:05:13.170Z,10.67
2023-02-01T11:07:46.940Z,10.50
2023-02-01T11:10:43.210Z,10.68
2023-02-01T11:13:17.329Z,10.44
2023-02-01T11:15:56.194Z,10.93
2023-02-01T11:18:30.577Z,10.12
2023-02-01T11:20:57.749Z,10.08
2023-02-01T11:23:27.715Z,10.97
2023-02-01T11:25:57.717Z,10.54
2023-02-01T11:28:33.679Z,11.42
2023-02-01T11:31:04.390Z,10.89
2023-02-01T11:33:36.078Z,10.26
2023-02-01T11:36:16.583Z,11.14
2023-02-01T11:38:52.662Z,10.72
2023-02-01T11:41:27.730Z,11.52
2023-02-01T11:44:00.184Z,11.26
2023-02-01T11:46:33.331Z,11.31
2023-02-01T11:49:23.799Z,10.17
2023-02-01T11:52:13.324Z,10.18
2023-02-01T11:55:04.150Z,9.93
2023-02-01T11:58:07.622Z,10.34
2023-02-01T12:01:11.917Z,10.84
2023-02-01T12:03:47.038Z,10.02
2023-02-01T12:06:25.102Z,10.33
2023-02-01T12:09:00.853Z,10.93
2023-02-01T12:11:58.183Z,10.85
2023-02-01T12:14:36.803Z,10.82
2023-02-01T12:17:26.629Z,10.75
2023-02-01T12:20:11.404Z,10.80
2023-02-01T12:23:18.647Z,10.47
2023-02-01T12:25:47.998Z,10.61
2023-02-01T12:28:26.723Z,10.41
2023-02-01T12:31:06.332Z,10.33
2023-02-01T12:33:33.111Z,10.32
2023-02-01T12:36:26.174Z,10.50
2023-02-01T12:38:56.239Z,10.67
2023-02-01T12:41:46.264Z,10.34
2023-02-01T12:44:29.888Z,10.56
2023-02-01T12:47:06.127Z,10.43
2023-02-01T12:49:38.757Z,10.13
2023-02-01T12:52:16.288Z,10.22
2023-02-01T12:55:01.712Z,10.66
2023-02-01T12:57:34.452Z,10.19
2023-02-01T13:00:14.650Z,9.69
2023-02-01T13:02:51.213Z,11.01
2023-02-01T13:05:47.350Z,10.96
2023-02-01T13:08:22.403Z,11.07
2023-02-01T13:10:58.815Z,10.71
2023-02-01T13:13:42.679Z,10.97
2023-02-01T13:16:25.444Z,10.91
2023-02-01T13:18:54.608Z,11.06
2023-02-01T13:21:29.916Z,11.23
2023-02-01T13:23:56.782Z,11.12
2023-02-01T13:26:23.417Z,10.98
2023-02-01T13:29:00.315Z,11.28
2023-02-01T13:32:04.719Z,11.82
2023-02-01T13:34:58.770Z,11.08
2023-02-01T13:38:02.774Z,10.79
2023-02-01T13:40:38.694Z,11.00
2023-02-01T13:43:20.235Z,11.11
2023-02-01T13:45:53.081Z,10.43
2023-02-01T13:48:30.600Z,11.33
2023-02-01T13:50:59.850Z,11.86
2023-02-01T13:53:38.243Z,11.03
2023-02-01T13:56:12.238Z,11.38
2023-02-01T13:58:41.713Z,10.76
2023-02-01T14:01:23.704Z,11.26
2023-02-01T14:04:30.523Z,10.78
2023-02-01T14:06:59.200Z,10.81
2023-02-01T14:09:38.010Z,10.97
2023-02-01T14:12:42.473Z,10.54
2023-02-01T14:15:28.137Z,10.67
2023-02-01T14:17:55.585Z,11.14
2023-02-01T14:20:46.388Z,11.25
2023-02-01T14:23:16.684Z,10.74
2023-02-01T14:25:54.107Z,10.29
2023-02-01T14:28:31.007Z,9.94
2023-02-01T14:30:59.870Z,10.08
2023-02-01T14:33:29.154Z,10.26
2023-02-01T14:36:08.904Z,9.82
2023-02-01T14:38:38.527Z,9.61
2023-02-01T14:41:15.674Z,9.90
2023-02-01T14:44:03.918Z,9.74
2023-02-01T14:47:06.065Z,10.05
2023-02-01T14:49:57.585Z,10.54
2023-02-01T14:52:34.102Z,10.13
2023-02-01T15:03:50.870Z,10.51
2023-02-01T15:06:42.700Z,9.71
2023-02-01T15:09:27.589Z,9.94
2023-02-01T15:12:13.308Z,9.87
2023-02-01T15:14:43.529Z,10.53
2023-02-01T15:17:35.195Z,9.66
2023-02-01T15:20:19.080Z,10.16
2023-02-01T15:23:03.371Z,9.97
2023-02-01T15:25:39.183Z,9.47
2023-02-01T15:28:07.017Z,9.48
2023-02-01T15:30:35.702Z,9.74
2023-02-01T15:33:21.291Z,9.15
2023-02-01T15:35:53.684Z,8.77
2023-02-01T15:38:26.054Z,8.80
2023-02-01T15:41:00.353Z,9.04
2023-02-01T15:43:28.544Z,8.95
2023-02-01T15:46:00.731Z,8.91
2023-02-01T15:48:30.958Z,8.56
2023-02-01T15:50:57.592Z,8.97
2023-02-01T15:53:27.702Z,9.07
2023-02-01T15:55:58.046Z,9.43
2023-02-01T15:58:27.168Z,9.61
2023-02-01T16:00:58.540Z,9.72
2023-02-01T16:03:40.392Z,9.58
2023-02-01T16:06:09.917Z,9.48
2023-02-01T16:08:38.047Z,9.04
2023-02-01T16:11:10.653Z,9.25
2023-02-01T16:13:37.193Z,9.52
2023-02-01T16:16:09.005Z,9.59
2023-02-01T16:18:35.640Z,10.10
2023-02-01T16:21:09.677Z,9.84
2023-02-01T16:23:38.001Z,9.75
2023-02-01T16:26:06.740Z,9.91
2023-02-01T16:28:33.949Z,9.79
2023-02-01T16:31:01.858Z,9.65
2023-02-01T16:33:28.692Z,9.30
2023-02-01T16:35:58.118Z,10.07
2023-02-01T16:38:24.874Z,10.26
2023-02-01T16:40:51.495Z,10.34
2023-02-01T16:43:20.981Z,9.97
2023-02-01T16:45:49.690Z,10.27
2023-02-01T16:48:23.808Z,10.54
2023-02-01T16:50:58.797Z,10.58
2023-02-01T16:53:26.218Z,10.47
2023-02-01T16:55:53.245Z,10.39
2023-02-01T16:58:21.673Z,10.23
2023-02-01T17:00:48.789Z,10.29
2023-02-01T17:03:18.648Z,9.91
2023-02-01T17:05:48.230Z,10.37
2023-02-01T17:08:20.113Z,10.55
2023-02-01T17:10:47.037Z,10.66
2023-02-01T17:13:15.906Z,10.50
2023-02-01T17:15:50.176Z,10.10
2023-02-01T17:18:18.064Z,10.26
2023-02-01T17:20:44.914Z,10.40
2023-02-01T17:23:11.684Z,9.76
2023-02-01T17:25:38.219Z,10.06
2023-02-01T17:28:05.218Z,9.73
2023-02-01T17:30:32.659Z,10.12
2023-02-01T17:33:00.907Z,10.41
2023-02-01T17:35:32.221Z,10.56
2023-02-01T17:37:58.771Z,9.81
2023-02-01T17:40:25.351Z,9.17
2023-02-01T17:42:52.347Z,10.53
2023-02-01T17:45:33.513Z,10.15
2023-02-01T17:48:00.214Z,9.93
2023-02-01T17:50:30.258Z,10.28
2023-02-01T17:52:56.823Z,10.33
2023-02-01T17:55:25.934Z,9.84
2023-02-01T17:57:52.942Z,10.86
2023-02-01T18:00:19.906Z,9.69
2023-02-01T18:02:46.518Z,10.69
2023-02-01T18:05:28.817Z,10.46
2023-02-01T18:07:55.378Z,10.53
2023-02-01T18:10:48.519Z,10.52
2023-02-01T18:13:15.071Z,10.57
2023-02-01T18:15:41.606Z,10.35
2023-02-01T18:18:08.155Z,10.06
2023-02-01T18:20:36.137Z,9.62
2023-02-01T18:23:02.862Z,10.37
2023-02-01T18:25:33.989Z,10.41
2023-02-01T18:28:00.520Z,9.99
2023-02-01T18:30:31.605Z,10.39
2023-02-01T18:32:58.723Z,9.77
2023-02-01T18:35:28.264Z,10.73
2023-02-01T18:37:56.203Z,10.05
2023-02-01T18:40:26.490Z,10.09
2023-02-01T18:42:53.168Z,9.98
2023-02-01T18:45:22.276Z,10.85
2023-02-01T18:47:49.659Z,10.80
2023-02-01T18:50:17.721Z,10.23
2023-02-01T18:52:44.343Z,10.22
2023-02-01T18:55:11.542Z,10.44
2023-02-01T18:57:39.399Z,10.69
2023-02-01T19:00:08.551Z,9.59
2023-02-01T19:02:35.194Z,10.76
2023-02-01T19:05:02.999Z,10.11
2023-02-01T19:07:29.567Z,10.29
2023-02-01T19:09:56.094Z,10.24
2023-02-01T19:12:22.715Z,10.33
2023-02-01T19:14:49.262Z,9.90
2023-02-01T19:17:15.797Z,10.22
2023-02-01T19:19:44.061Z,10.10
2023-02-01T19:22:10.600Z,10.25
2023-02-01T19:24:37.119Z,9.95
2023-02-01T19:27:03.718Z,9.54
2023-02-01T19:29:30.940Z,10.18
2023-02-01T19:31:57.549Z,9.64
2023-02-01T19:34:24.186Z,9.93
2023-02-01T19:36:50.957Z,10.58
2023-02-01T19:39:17.504Z,9.97
2023-02-01T19:41:44.050Z,9.91
2023-02-01T19:44:10.622Z,9.84
2023-02-01T19:46:37.184Z,9.73
2023-02-01T19:49:03.861Z,10.60
2023-02-01T19:51:30.495Z,10.08
2023-02-01T19:53:57.485Z,10.20
2023-02-01T19:56:24.084Z,9.42
2023-02-01T19:58:51.792Z,10.06
2023-02-01T20:01:18.617Z,10.01
2023-02-01T20:03:45.161Z,9.29
2023-02-01T20:06:12.541Z,10.48
2023-02-01T20:08:39.113Z,10.92
2023-02-01T20:11:06.919Z,10.34
2023-02-01T20:13:35.221Z,10.75
2023-02-01T20:16:02.172Z,10.55
2023-02-01T20:18:28.711Z,11.01
2023-02-01T20:20:58.555Z,10.46
2023-02-01T20:23:26.915Z,9.77
2023-02-01T20:25:54.366Z,9.96
2023-02-01T20:28:20.914Z,10.86
2023-02-01T20:30:47.509Z,10.62
2023-02-01T20:33:14.110Z,10.38
2023-02-01T20:35:45.035Z,10.24
2023-02-01T20:38:11.580Z,10.57
2023-02-01T20:40:38.199Z,9.74
2023-02-01T20:43:04.736Z,10.52
2023-02-01T20:45:31.326Z,10.39
2023-02-01T20:47:57.994Z,10.62
2023-02-01T20:50:25.176Z,10.54
2023-02-01T20:52:51.746Z,9.97
2023-02-01T20:55:18.281Z,10.42
2023-02-01T20:57:44.857Z,10.17
2023-02-01T21:00:12.518Z,10.64
2023-02-01T21:02:39.118Z,10.33
2023-02-01T21:05:05.994Z,10.16
2023-02-01T21:07:32.517Z,9.60
2023-02-01T21:09:59.030Z,10.47
2023-02-01T21:12:25.614Z,10.07
2023-02-01T21:14:52.127Z,10.52
2023-02-01T21:17:18.699Z,10.31
2023-02-01T21:19:45.214Z,10.67
2023-02-01T21:22:13.169Z,9.72
2023-02-01T21:24:43.715Z,10.19
2023-02-01T21:27:10.599Z,10.09
2023-02-01T21:29:37.376Z,9.80
2023-02-01T21:32:04.845Z,10.15
2023-02-01T21:34:31.425Z,9.43
2023-02-01T21:36:58.006Z,10.25
2023-02-01T21:39:25.366Z,9.74
2023-02-01T21:42:10.638Z,10.34
2023-02-01T21:44:37.162Z,10.32
2023-02-01T21:47:03.774Z,9.65
2023-02-01T21:49:30.327Z,9.44
2023-02-01T21:51:57.066Z,10.17
2023-02-01T21:54:23.614Z,9.88
2023-02-01T21:56:50.193Z,9.33
2023-02-01T21:59:16.824Z,9.48
2023-02-01T22:01:43.866Z,9.84
2023-02-01T22:04:10.646Z,10.26
2023-02-01T22:06:41.210Z,9.63
2023-02-01T22:09:18.661Z,10.33
2023-02-01T22:11:45.654Z,9.89
2023-02-01T22:14:13.113Z,10.03
2023-02-01T22:16:40.461Z,9.99
2023-02-01T22:19:07.244Z,10.65
2023-02-01T22:21:33.784Z,9.51
2023-02-01T22:24:00.354Z,9.99
2023-02-01T22:26:27.809Z,9.96
2023-02-01T22:28:54.874Z,10.30
2023-02-01T22:31:21.888Z,9.68
2023-02-01T22:33:50.033Z,10.11
2023-02-01T22:36:17.596Z,9.92
2023-02-01T22:38:45.579Z,10.35
2023-02-01T22:41:12.669Z,9.90
2023-02-01T22:43:40.070Z,9.54
2023-02-01T22:46:11.975Z,10.40
2023-02-01T22:48:39.959Z,9.50
2023-02-01T22:51:09.990Z,9.09
2023-02-01T22:53:36.588Z,9.59
2023-02-01T22:56:05.159Z,9.23
2023-02-01T22:58:32.262Z,9.25
2023-02-01T23:01:10.122Z,8.73
2023-02-01T23:03:38.173Z,9.72
2023-02-01T23:06:06.040Z,9.20
2023-02-01T23:08:35.273Z,9.39
2023-02-01T23:11:04.640Z,9.25
2023-02-01T23:13:32.412Z,9.27
2023-02-01T23:15:59.084Z,9.09
2023-02-01T23:18:26.076Z,9.13
2023-02-01T23:20:53.356Z,9.23
2023-02-01T23:23:19.903Z,9.73
2023-02-01T23:25:51.307Z,9.67
2023-02-01T23:28:17.902Z,9.42
2023-02-01T23:30:44.548Z,9.56
2023-02-01T23:33:11.093Z,9.20
2023-02-01T23:35:37.854Z,9.78
2023-02-01T23:38:04.362Z,9.90
2023-02-01T23:40:30.993Z,9.73
2023-02-01T23:43:16.178Z,10.05
2023-02-01T23:45:42.720Z,9.95
2023-02-01T23:48:09.403Z,10.62
2023-02-01T23:50:35.926Z,10.21
2023-02-01T23:53:02.477Z,10.21
